createdAt,value
2023-03-12T00:04:41.693Z,0.55
2023-03-12T00:09:45.749Z,0.48
2023-03-12T00:14:49.883Z,0.39
2023-03-12T00:19:53.338Z,0.31
2023-03-12T00:24:57.723Z,0.31
2023-03-12T00:30:02.045Z,0.36
2023-03-12T00:35:07.092Z,0.33
2023-03-12T00:40:11.492Z,0.29
2023-03-12T00:45:16.093Z,0.21
2023-03-12T00:50:18.988Z,0.19
2023-03-12T00:55:21.834Z,0.12
2023-03-12T01:00:26.376Z,-0.21
2023-03-12T01:05:29.862Z,-0.54
2023-03-12T01:10:32.921Z,-0.74
2023-03-12T01:15:37.252Z,-0.78
2023-03-12T01:20:41.230Z,-0.72
2023-03-12T01:25:44.204Z,-0.69
2023-03-12T01:30:48.676Z,-0.67
2023-03-12T01:35:52.020Z,-0.70
2023-03-12T01:40:54.906Z,-0.74
2023-03-12T01:46:22.589Z,-0.64
2023-03-12T01:51:28.193Z,-0.57
2023-03-12T01:56:34.646Z,-0.56
2023-03-12T02:01:39.627Z,-0.62
2023-03-12T02:06:49.330Z,-0.57
2023-03-12T02:11:52.451Z,-0.60
2023-03-12T02:16:57.841Z,-0.64
2023-03-12T02:22:00.992Z,-0.69
2023-03-12T02:27:06.804Z,-0.68
2023-03-12T02:32:17.112Z,-0.67
2023-03-12T02:37:20.939Z,-0.59
2023-03-12T02:42:25.656Z,-0.63
2023-03-12T02:47:28.827Z,-0.71
2023-03-12T02:52:35.561Z,-0.74
2023-03-12T02:57:40.424Z,-0.77
2023-03-12T03:02:47.211Z,-0.78
2023-03-12T03:07:50.402Z,-0.80
2023-03-12T03:12:54.650Z,-0.82
2023-03-12T03:17:58.374Z,-0.84
2023-03-12T03:23:01.491Z,-0.84
2023-03-12T03:28:06.059Z,-0.84
2023-03-12T03:33:08.838Z,-0.95
2023-03-12T03:38:11.729Z,-0.85
2023-03-12T03:43:16.172Z,-0.80
2023-03-12T03:48:19.762Z,-0.79
2023-03-12T03:53:22.665Z,-0.75
2023-03-12T03:58:27.147Z,-0.83
2023-03-12T04:03:30.730Z,-0.87
2023-03-12T04:08:35.490Z,-0.82
2023-03-12T04:13:40.425Z,-0.84
2023-03-12T04:18:44.567Z,-0.89
2023-03-12T04:23:48.003Z,-0.91
2023-03-12T04:28:52.613Z,-0.86
2023-03-12T04:33:55.722Z,-0.89
2023-03-12T04:39:00.310Z,-0.92
2023-03-12T04:44:11.536Z,-0.98
2023-03-12T04:49:15.890Z,-1.02
2023-03-12T04:54:20.981Z,-0.94
2023-03-12T04:59:25.716Z,-0.87
2023-03-12T05:04:31.874Z,-0.78
2023-03-12T05:09:36.179Z,-0.67
2023-03-12T05:14:40.641Z,-0.65
2023-03-12T05:19:44.623Z,-0.62
2023-03-12T05:24:47.679Z,-0.48
2023-03-12T05:29:52.017Z,-0.50
2023-03-12T05:34:56.543Z,-0.47
2023-03-12T05:40:00.644Z,-0.49
2023-03-12T05:45:06.120Z,-0.50
2023-03-12T05:50:11.498Z,-0.52
2023-03-12T05:55:14.718Z,-0.45
2023-03-12T06:00:20.993Z,-0.42
2023-03-12T06:05:31.697Z,-0.47
2023-03-12T06:10:35.311Z,-0.49
2023-03-12T06:15:39.554Z,-0.30
2023-03-12T06:20:43.792Z,-0.31
2023-03-12T06:25:47.184Z,-0.25
2023-03-12T06:30:54.024Z,-0.20
2023-03-12T06:35:57.690Z,-0.09
2023-03-12T06:41:02.195Z,-0.03
2023-03-12T06:46:08.109Z,-0.01
2023-03-12T06:51:12.370Z,0.44
2023-03-12T06:56:15.501Z,0.96
2023-03-12T07:01:19.713Z,1.11
2023-03-12T07:06:23.996Z,1.67
2023-03-12T07:11:26.766Z,1.65
2023-03-12T07:16:31.421Z,1.60
2023-03-12T07:21:34.324Z,1.36
2023-03-12T07:26:37.253Z,1.29
2023-03-12T07:31:41.489Z,1.08
2023-03-12T07:36:44.432Z,1.28
2023-03-12T07:41:47.253Z,1.19
2023-03-12T07:46:51.753Z,1.25
2023-03-12T07:51:55.131Z,1.33
2023-03-12T07:56:58.068Z,1.28
2023-03-12T08:02:02.501Z,1.45
2023-03-12T08:07:08.006Z,1.62
2023-03-12T08:12:12.301Z,1.97
2023-03-12T08:17:16.586Z,1.85
2023-03-12T08:22:19.412Z,2.05
2023-03-12T08:27:22.238Z,2.03
2023-03-12T08:32:26.697Z,2.35
2023-03-12T08:37:30.303Z,2.57
2023-03-12T08:42:33.244Z,2.69
2023-03-12T08:47:37.437Z,2.61
2023-03-12T08:52:40.517Z,2.68
2023-03-12T08:57:43.382Z,2.75
2023-03-12T09:02:47.924Z,2.83
2023-03-12T09:07:50.700Z,2.68
2023-03-12T09:12:53.443Z,2.78
2023-03-12T09:17:57.817Z,2.82
2023-03-12T09:23:00.594Z,2.78
2023-03-12T09:28:03.452Z,2.67
2023-03-12T09:33:07.940Z,2.57
2023-03-12T09:38:14.739Z,2.62
2023-03-12T09:43:26.146Z,2.66
2023-03-12T09:48:34.618Z,2.75
2023-03-12T09:53:46.956Z,2.65
2023-03-12T09:58:54.528Z,2.48
2023-03-12T10:04:24.431Z,2.11
2023-03-12T10:09:40.769Z,2.17
2023-03-12T10:14:54.502Z,2.22
2023-03-12T10:20:18.576Z,2.47
2023-03-12T10:25:28.156Z,2.53
2023-03-12T10:30:33.117Z,1.98
2023-03-12T10:35:37.552Z,1.83
2023-03-12T10:40:41.960Z,1.83
2023-03-12T10:45:53.361Z,1.94
2023-03-12T10:51:06.115Z,2.04
2023-03-12T10:56:10.778Z,2.05
2023-03-12T11:01:21.326Z,1.92
2023-03-12T11:06:28.379Z,1.93
2023-03-12T11:11:38.540Z,2.06
2023-03-12T11:16:41.482Z,2.01
2023-03-12T11:21:56.844Z,2.08
2023-03-12T11:27:06.542Z,2.21
2023-03-12T11:32:17.927Z,2.24
2023-03-12T11:37:31.729Z,2.07
2023-03-12T11:42:52.058Z,2.10
2023-03-12T11:48:04.547Z,2.08
2023-03-12T11:53:31.389Z,1.90
2023-03-12T11:58:51.065Z,2.10
2023-03-12T12:04:09.841Z,2.42
2023-03-12T12:09:26.499Z,2.53
2023-03-12T12:14:49.640Z,2.42
2023-03-12T12:20:09.210Z,2.45
2023-03-12T12:25:30.072Z,2.71
2023-03-12T12:30:49.364Z,2.74
2023-03-12T12:35:52.389Z,2.56
2023-03-12T12:41:02.075Z,2.75
2023-03-12T12:46:07.524Z,2.64
2023-03-12T12:51:11.639Z,2.86
2023-03-12T12:56:23.899Z,3.26
2023-03-12T13:01:28.100Z,3.25
2023-03-12T13:06:58.513Z,3.23
2023-03-12T13:12:08.549Z,3.37
2023-03-12T13:17:24.239Z,3.44
2023-03-12T13:22:59.345Z,3.70
2023-03-12T13:28:30.317Z,3.83
2023-03-12T13:33:45.126Z,3.70
2023-03-12T13:38:56.853Z,3.94
2023-03-12T13:44:01.425Z,4.09
2023-03-12T13:49:10.985Z,4.43
2023-03-12T13:54:19.597Z,4.34
2023-03-12T13:59:25.786Z,4.49
2023-03-12T14:04:35.130Z,4.66
2023-03-12T14:09:45.438Z,4.84
2023-03-12T14:15:22.047Z,4.86
2023-03-12T14:20:25.808Z,4.73
2023-03-12T14:25:35.161Z,4.80
2023-03-12T14:30:49.642Z,4.91
2023-03-12T14:35:57.230Z,5.38
2023-03-12T14:41:05.725Z,5.26
2023-03-12T14:46:16.710Z,5.08
2023-03-12T14:51:24.924Z,5.37
2023-03-12T14:56:30.696Z,5.55
2023-03-12T15:01:39.402Z,5.61
2023-03-12T15:06:46.946Z,5.37
2023-03-12T15:11:55.562Z,5.75
2023-03-12T15:17:00.740Z,5.83
2023-03-12T15:22:05.140Z,5.79
2023-03-12T15:27:31.483Z,5.99
2023-03-12T15:32:35.684Z,6.16
2023-03-12T15:37:40.918Z,5.98
2023-03-12T15:42:47.086Z,6.14
2023-03-12T15:47:53.521Z,6.33
2023-03-12T15:53:02.196Z,6.46
2023-03-12T15:58:26.404Z,6.54
2023-03-12T16:03:30.517Z,6.67
2023-03-12T16:08:39.174Z,6.91
2023-03-12T16:13:43.599Z,6.98
2023-03-12T16:18:47.780Z,6.88
2023-03-12T16:23:50.546Z,7.06
2023-03-12T16:28:53.295Z,7.02
2023-03-12T16:33:58.081Z,7.20
2023-03-12T16:39:00.817Z,7.06
2023-03-12T16:44:04.294Z,7.12
2023-03-12T16:49:12.748Z,6.98
2023-03-12T16:54:15.518Z,7.07
2023-03-12T16:59:25.869Z,7.00
2023-03-12T17:04:30.075Z,6.97
2023-03-12T17:09:32.909Z,7.12
2023-03-12T17:14:35.837Z,7.16
2023-03-12T17:19:39.964Z,6.92
2023-03-12T17:24:42.780Z,6.88
2023-03-12T17:29:45.487Z,7.14
2023-03-12T17:34:55.825Z,7.10
2023-03-12T17:40:01.486Z,7.21
2023-03-12T17:45:05.396Z,7.35
2023-03-12T17:50:10.965Z,7.21
2023-03-12T17:55:13.811Z,7.30
2023-03-12T18:00:17.657Z,7.34
2023-03-12T18:05:21.788Z,7.33
2023-03-12T18:10:24.526Z,7.21
2023-03-12T18:15:27.305Z,7.21
2023-03-12T18:20:38.514Z,7.18
2023-03-12T18:25:42.777Z,7.35
2023-03-12T18:30:46.702Z,7.50
2023-03-12T18:35:53.186Z,7.42
2023-03-12T18:41:04.539Z,7.39
2023-03-12T18:46:08.522Z,7.54
2023-03-12T18:51:12.692Z,7.36
2023-03-12T18:56:15.651Z,7.49
2023-03-12T19:01:18.538Z,7.51
2023-03-12T19:06:22.717Z,7.39
2023-03-12T19:11:26.391Z,7.46
2023-03-12T19:16:29.210Z,7.64
2023-03-12T19:21:33.440Z,7.72
2023-03-12T19:26:36.350Z,7.75
2023-03-12T19:31:39.186Z,7.80
2023-03-12T19:36:43.342Z,7.77
2023-03-12T19:41:46.204Z,7.70
2023-03-12T19:46:49.012Z,7.69
2023-03-12T19:51:53.111Z,7.70
2023-03-12T19:56:55.871Z,7.62
2023-03-12T20:02:00.764Z,7.48
2023-03-12T20:07:04.925Z,7.50
2023-03-12T20:12:08.041Z,7.53
2023-03-12T20:17:12.087Z,7.85
2023-03-12T20:22:16.407Z,7.62
2023-03-12T20:27:19.307Z,7.47
2023-03-12T20:32:22.131Z,7.75
2023-03-12T20:37:26.254Z,7.72
2023-03-12T20:42:29.047Z,7.85
2023-03-12T20:47:34.573Z,7.75
2023-03-12T20:52:38.925Z,7.71
2023-03-12T20:57:41.665Z,7.85
2023-03-12T21:02:44.524Z,7.98
2023-03-12T21:07:48.713Z,7.80
2023-03-12T21:12:51.492Z,7.92
2023-03-12T21:17:54.275Z,7.88
2023-03-12T21:22:58.695Z,7.76
2023-03-12T21:28:01.866Z,7.58
2023-03-12T21:33:04.777Z,7.81
2023-03-12T21:38:08.960Z,7.62
2023-03-12T21:43:11.714Z,7.89
2023-03-12T21:48:14.562Z,7.65
2023-03-12T21:53:23.711Z,7.53
2023-03-12T21:58:28.647Z,7.80
2023-03-12T22:03:31.467Z,8.06
2023-03-12T22:08:36.186Z,7.88
2023-03-12T22:13:39.177Z,7.95
2023-03-12T22:18:43.653Z,7.78
2023-03-12T22:23:50.941Z,8.09
2023-03-12T22:28:55.567Z,8.22
2023-03-12T22:33:58.876Z,8.05
2023-03-12T22:39:03.060Z,8.31
2023-03-12T22:44:07.458Z,8.13
2023-03-12T22:49:10.226Z,8.17
2023-03-12T22:54:14.306Z,8.22
2023-03-12T22:59:17.069Z,8.36
2023-03-12T23:04:19.886Z,8.15
2023-03-12T23:09:24.087Z,8.10
2023-03-12T23:14:26.874Z,8.32
2023-03-12T23:19:33.005Z,8.13
2023-03-12T23:24:37.207Z,8.27
2023-03-12T23:29:40.025Z,8.17
2023-03-12T23:34:42.796Z,8.25
2023-03-12T23:39:54.481Z,8.10
2023-03-12T23:44:57.904Z,8.32
2023-03-12T23:50:00.698Z,8.28
2023-03-12T23:55:05.353Z,8.13
